Latest Weather Observations for Fowlers Gap

IDN60801

Issued at 10:02 am EDT Wednesday 29 March 2017 (issued every 30 minutes, with the page automatically refreshed every 10 minutes)

About weather observations | Map of weather stations | Latest weather observations for NSW | Other Formats
Station Details ID: 046128 Name: FOWLERS GAP AWS Lat: -31.09 Lon: 141.70 Height: 181.0 m
Data from the previous 72 hours. | See also: Recent months at Fowlers Gap
Date/Time
EDT
Temp
°C
App
Temp
°C
Dew
Point
°C
Rel
Hum
%
Delta-T
°C
Wind Press
QNH
hPa
Press
MSL
hPa
Rain since
9am
mm
Dir  Spd
km/h
Gust
km/h
Spd
kts
Gust
kts
29/10:00am 22.2 20.7 2.8 28 9.3 CALM 0 0 0 0 1012.5 1011.7 0.0
29/09:30am 19.4 17.7 1.9 31 8.1 CALM 0 0 0 0 1012.5 1011.7 0.0
29/09:00am 16.5 14.7 1.0 35 6.8 CALM 0 0 0 0 1012.3 1011.5 0.0
29/08:30am 14.1 12.2 0.7 40 5.8 CALM 0 4 0 2 1012.1 1011.3 0.0
29/08:00am 12.7 10.8 0.5 43 5.2 CALM 0 0 0 0 1011.9 1011.0 0.0
29/07:30am 12.7 10.8 0.5 43 5.1 CALM 0 0 0 0 1011.6 1010.7 0.0
29/07:00am 12.9 10.9 0.0 41 5.4 CALM 0 0 0 0 1011.4 1010.5 0.0
29/06:30am 13.3 11.4 0.7 42 5.4 CALM 0 0 0 0 1011.0 1010.1 0.0
29/06:00am 13.1 11.0 -0.5 39 5.6 CALM 0 0 0 0 1010.9 1010.0 0.0
29/05:30am 13.4 11.4 0.1 40 5.6 CALM 0 0 0 0 1010.8 1009.9 0.0
29/05:00am 13.8 11.8 0.1 39 5.8 CALM 0 0 0 0 1010.7 1009.8 0.0
29/04:30am 14.0 11.6 -0.1 38 5.9 SW 2 6 1 3 1010.8 1009.9 0.0
29/04:00am 14.9 12.9 0.0 36 6.4 CALM 0 0 0 0 1010.9 1010.0 0.0
29/03:30am 15.2 13.3 0.6 37 6.3 CALM 0 0 0 0 1011.1 1010.2 0.0
29/03:00am 15.6 12.5 0.2 35 6.6 WSW 6 7 3 4 1011.3 1010.4 0.0
29/02:30am 16.4 14.6 0.9 35 6.8 CALM 0 0 0 0 1011.6 1010.7 0.0
29/02:00am 17.5 15.6 0.6 32 7.5 CALM 0 0 0 0 1011.9 1011.0 0.0
29/01:30am 19.2 16.2 1.7 31 8.0 S 7 9 4 5 1012.2 1011.4 0.0
29/01:00am 20.4 17.6 1.8 29 8.6 SSE 6 9 3 5 1012.5 1011.7 0.0
29/12:30am 20.5 18.3 0.9 27 8.9 S 2 6 1 3 1012.8 1012.0 0.0
29/12:00am 22.4 18.8 0.9 24 10.0 ESE 9 13 5 7 1012.9 1012.1 0.0
 
Date/Time
EDT
Temp
°C
App
Temp
°C
Dew
Point
°C
Rel
Hum
%
Delta-T
°C
Wind Press
QNH
hPa
Press
MSL
hPa
Rain since
9am
mm
Dir  Spd
km/h
Gust
km/h
Spd
kts
Gust
kts
28/11:30pm 22.5 20.0 1.5 25 9.8 ESE 4 7 2 4 1013.0 1012.2 0.0
28/11:00pm 22.6 18.6 2.7 27 9.5 SSE 13 17 7 9 1013.0 1012.2 0.0
28/10:30pm 22.7 19.1 2.8 27 9.6 SSE 11 15 6 8 1013.1 1012.3 0.0
28/10:00pm 24.5 20.6 3.2 25 10.5 SSE 13 15 7 8 1012.9 1012.1 0.0
28/09:30pm 25.4 21.5 3.4 24 10.9 SE 13 19 7 10 1012.9 1012.1 0.0
28/09:00pm 26.2 22.3 3.5 23 11.3 SE 13 15 7 8 1012.7 1011.9 0.0
28/08:30pm 27.0 23.1 3.5 22 11.8 SE 13 17 7 9 1012.4 1011.6 0.0
28/08:00pm 27.8 23.9 3.5 21 12.3 SE 13 17 7 9 1012.2 1011.4 0.0
28/07:30pm 28.9 24.7 3.7 20 12.8 SSE 15 20 8 11 1012.1 1011.3 0.0
28/07:00pm 29.9 25.3 3.8 19 13.4 SSE 17 24 9 13 1011.9 1011.0 0.0
28/06:30pm 30.2 25.7 4.0 19 13.5 SE 17 22 9 12 1011.8 1010.9 0.0
28/06:00pm 30.9 26.5 4.6 19 13.8 SSE 17 24 9 13 1011.8 1010.9 0.0
28/05:30pm 30.8 26.7 4.5 19 13.7 SSE 15 24 8 13 1011.8 1010.9 0.0
28/05:00pm 30.8 26.9 5.3 20 13.5 SE 15 24 8 13 1011.9 1011.0 0.0
28/04:30pm 30.4 26.0 4.9 20 13.4 SSE 17 24 9 13 1012.1 1011.3 0.0
28/04:00pm 30.9 27.0 5.3 20 13.6 S 15 24 8 13 1012.3 1011.5 0.0
28/03:30pm 30.7 26.4 5.2 20 13.5 SE 17 22 9 12 1012.5 1011.7 0.0
28/03:00pm 30.0 26.1 5.3 21 13.0 SSE 15 24 8 13 1012.9 1012.1 0.0
28/02:30pm 29.9 25.7 5.9 22 12.8 SE 17 26 9 14 1013.2 1012.4 0.0
28/02:00pm 28.3 24.2 4.6 22 12.2 SSE 15 24 8 13 1013.7 1012.9 0.0
28/01:30pm 28.0 23.1 5.0 23 11.9 SSE 20 26 11 14 1014.0 1013.2 0.0
28/01:00pm 27.5 22.6 5.1 24 11.6 ESE 20 28 11 15 1014.6 1013.8 0.0
28/12:30pm 26.8 22.1 6.2 27 10.8 SE 20 32 11 17 1015.2 1014.3 0.0
28/12:00pm 25.7 20.9 5.8 28 10.3 SE 20 32 11 17 1015.6 1014.7 0.0
28/11:30am 25.1 20.0 5.8 29 10.0 SE 22 32 12 17 1015.7 1014.8 0.0
28/11:00am 24.3 19.0 6.6 32 9.2 SE 24 33 13 18 1015.8 1014.9 0.0
28/10:30am 23.1 17.0 6.8 35 8.5 SE 28 33 15 18 1015.7 1014.8 0.0
28/10:00am 22.2 16.6 7.2 38 7.8 ESE 26 33 14 18 1015.8 1014.9 0.0
28/09:30am 21.3 15.3 7.2 40 7.3 SE 28 37 15 20 1015.7 1014.8 0.0
28/09:00am 20.5 16.0 6.8 41 7.0 SE 20 28 11 15 1015.5 1014.6 0.0
28/08:30am 19.6 15.9 6.4 42 6.7 SSE 15 19 8 10 1015.1 1014.2 0.0
28/08:00am 19.7 15.8 7.1 44 6.4 SE 17 20 9 11 1014.7 1013.9 0.0
28/07:30am 20.1 16.6 7.1 43 6.7 SE 15 20 8 11 1014.4 1013.6 0.0
28/07:00am 20.4 16.0 6.7 41 7.0 SE 19 24 10 13 1014.0 1013.2 0.0
28/06:30am 20.6 16.1 6.2 39 7.3 SE 19 24 10 13 1013.6 1012.8 0.0
28/06:00am 21.0 16.9 6.2 38 7.5 SE 17 24 9 13 1013.4 1012.6 0.0
28/05:30am 21.4 17.2 5.7 36 7.9 SE 17 24 9 13 1013.1 1012.3 0.0
28/05:00am 21.6 17.4 5.5 35 8.1 SE 17 22 9 12 1013.1 1012.3 0.0
28/04:30am 21.8 17.5 5.3 34 8.3 SE 17 20 9 11 1013.2 1012.4 0.0
28/04:00am 22.1 17.5 5.5 34 8.4 SE 19 26 10 14 1013.2 1012.4 0.0
28/03:30am 22.5 17.8 5.9 34 8.5 SE 20 30 11 16 1013.4 1012.6 0.0
28/03:00am 22.9 17.8 5.8 33 8.7 SE 22 30 12 16 1013.5 1012.7 0.0
28/02:30am 23.3 17.8 6.1 33 8.8 SE 24 33 13 18 1013.6 1012.8 0.0
28/02:00am 23.8 18.1 6.6 33 8.9 SE 26 35 14 19 1013.9 1013.1 0.0
28/01:30am 24.2 18.3 6.0 31 9.4 SE 26 37 14 20 1014.0 1013.2 0.0
28/01:00am 24.7 19.6 6.0 30 9.7 SSE 22 35 12 19 1014.0 1013.2 0.0
28/12:30am 25.5 18.7 6.7 30 9.9 SE 32 43 17 23 1014.1 1013.3 0.0
28/12:00am 26.2 19.4 6.8 29 10.3 SSE 32 44 17 24 1013.9 1013.1 0.0
 
Date/Time
EDT
Temp
°C
App
Temp
°C
Dew
Point
°C
Rel
Hum
%
Delta-T
°C
Wind Press
QNH
hPa
Press
MSL
hPa
Rain since
9am
mm
Dir  Spd
km/h
Gust
km/h
Spd
kts
Gust
kts
27/11:51pm 26.4 19.6 6.9 29 10.3 SSE 32 50 17 27 1013.8 1013.0 0.0
27/11:30pm 27.0 19.8 7.5 29 10.5 SSE 35 50 19 27 1013.6 1012.8 0.0
27/11:10pm 27.9 21.7 7.7 28 11.0 SSE 30 48 16 26 1013.3 1012.5 0.0
27/11:00pm 28.2 21.8 6.9 26 11.4 SSE 30 41 16 22 1013.2 1012.4 0.0
27/10:30pm 28.9 22.7 8.0 27 11.5 S 30 37 16 20 1012.9 1012.1 0.0
27/10:00pm 29.5 23.7 9.6 29 11.2 SSE 30 43 16 23 1012.4 1011.6 0.0
27/09:30pm 30.9 26.9 10.3 28 11.8 S 22 35 12 19 1011.9 1011.0 0.0
27/09:00pm 31.5 27.8 10.2 27 12.3 S 20 28 11 15 1011.2 1010.3 0.0
27/08:30pm 32.3 28.7 10.4 26 12.7 S 20 28 11 15 1010.8 1009.9 0.0
27/08:00pm 33.2 29.6 10.5 25 13.2 S 20 30 11 16 1010.4 1009.5 0.0
27/07:30pm 34.2 30.3 10.7 24 13.8 S 22 32 12 17 1010.0 1009.1 0.0
27/07:00pm 35.2 30.6 10.9 23 14.4 SSW 26 37 14 20 1009.8 1008.9 0.0
27/06:30pm 35.7 30.4 11.4 23 14.5 SSW 30 39 16 21 1009.5 1008.6 0.0
27/06:00pm 35.7 30.6 10.7 22 14.8 SSW 28 41 15 22 1009.3 1008.4 0.0
27/05:30pm 36.2 30.5 11.1 22 14.9 SW 32 44 17 24 1008.9 1008.1 0.0
27/05:00pm 36.9 32.1 11.7 22 15.2 SW 28 39 15 21 1008.8 1008.0 0.0
27/04:30pm 37.6 30.8 10.8 20 16.0 SW 37 52 20 28 1008.8 1008.0 0.0
27/04:00pm 38.7 32.4 10.9 19 16.7 SW 35 50 19 27 1008.6 1007.8 0.0
27/03:30pm 40.2 32.6 10.5 17 17.8 SW 41 54 22 29 1008.4 1007.6 0.0
27/03:27pm 40.1 31.8 9.5 16 18.1 WSW 43 61 23 33 1008.4 1007.6 0.0
27/03:00pm 41.1 32.8 9.3 15 18.8 WSW 43 56 23 30 1008.3 1007.5 0.0
27/02:50pm 40.4 32.7 8.8 15 18.5 W 39 52 21 28 1008.4 1007.6 0.0
27/02:30pm 41.5 34.9 8.6 14 19.3 WNW 33 46 18 25 1008.3 1007.5 0.0
27/02:06pm 41.8 35.5 8.8 14 19.4 WNW 32 50 17 27 1008.6 1007.8 0.0
27/02:00pm 41.3 34.2 9.5 15 18.9 WNW 37 50 20 27 1008.8 1008.0 0.0
27/01:58pm 41.5 34.2 8.6 14 19.3 W 37 52 20 28 1008.7 1007.9 0.0
27/01:35pm 41.6 36.3 9.7 15 19.0 NW 28 46 15 25 1009.0 1008.2 0.0
27/01:30pm 40.7 35.2 9.0 15 18.6 NW 28 44 15 24 1009.3 1008.4 0.0
27/01:00pm 39.7 34.8 10.1 17 17.6 NNW 26 37 14 20 1009.9 1009.0 0.0
27/12:30pm 39.3 34.4 11.4 19 16.9 NNW 28 41 15 22 1010.4 1009.5 0.0
27/12:00pm 38.7 33.2 11.7 20 16.4 N 32 46 17 25 1010.5 1009.6 0.0
27/11:30am 37.7 32.5 11.6 21 15.7 N 30 43 16 23 1010.6 1009.7 0.0
27/11:00am 35.8 30.2 12.1 24 14.3 N 33 44 18 24 1010.8 1009.9 0.0
27/10:30am 34.7 29.6 13.0 27 13.2 NNE 32 44 17 24 1010.9 1010.0 0.0
27/10:00am 33.0 26.4 12.6 29 12.3 N 39 56 21 30 1010.9 1010.0 0.0
27/09:52am 32.6 26.3 12.3 29 12.1 N 37 56 20 30 1010.8 1009.9 0.0
27/09:30am 32.4 25.8 12.6 30 11.9 N 39 52 21 28 1010.8 1009.9 0.0
27/09:00am 31.7 25.1 12.5 31 11.5 N 39 54 21 29 1010.9 1010.0 0.0
27/08:30am 31.2 25.3 12.5 31 11.1 N 35 48 19 26 1010.7 1009.8 0.0
27/08:00am 31.0 25.3 11.9 31 11.3 N 33 46 18 25 1010.4 1009.5 0.0
27/07:30am 31.1 25.6 12.0 31 11.3 NNE 32 46 17 25 1010.4 1009.5 0.0
27/07:00am 30.7 26.5 11.1 30 11.4 NNE 24 33 13 18 1010.2 1009.3 0.0
27/06:30am 29.9 26.9 10.5 30 11.1 NE 17 24 9 13 1010.0 1009.1 0.0
27/06:00am 29.9 26.5 10.5 30 11.1 NE 19 24 10 13 1009.8 1008.9 0.0
27/05:30am 30.3 26.8 10.3 29 11.5 NE 19 24 10 13 1009.7 1008.8 0.0
27/05:00am 30.7 27.0 10.1 28 11.8 NNE 20 28 11 15 1009.6 1008.7 0.0
27/04:30am 31.1 27.3 9.9 27 12.1 NNE 20 28 11 15 1009.7 1008.8 0.0
27/04:00am 31.5 27.8 10.2 27 12.3 NNE 20 28 11 15 1009.8 1008.9 0.0
27/03:30am 32.0 28.3 10.1 26 12.6 NNE 20 26 11 14 1010.1 1009.2 0.0
27/03:00am 32.0 28.8 10.1 26 12.6 NE 17 22 9 12 1010.3 1009.4 0.0
27/02:30am 31.4 28.9 9.6 26 12.4 NE 13 17 7 9 1010.4 1009.5 0.0
27/02:00am 31.0 28.4 9.3 26 12.3 NE 13 19 7 10 1010.5 1009.6 0.0
27/01:30am 31.6 29.0 9.2 25 12.7 NE 13 19 7 10 1010.7 1009.8 0.0
27/01:00am 30.5 27.6 8.3 25 12.3 ENE 13 15 7 8 1010.9 1010.0 0.0
27/12:30am 29.9 27.6 8.9 27 11.7 ENE 11 13 6 7 1011.0 1010.1 0.0
27/12:00am 28.1 27.6 7.9 28 11.0 CALM 0 0 0 0 1011.1 1010.2 0.0
 
Date/Time
EDT
Temp
°C
App
Temp
°C
Dew
Point
°C
Rel
Hum
%
Delta-T
°C
Wind Press
QNH
hPa
Press
MSL
hPa
Rain since
9am
mm
Dir  Spd
km/h
Gust
km/h
Spd
kts
Gust
kts
26/11:30pm 28.8 28.3 7.9 27 11.4 CALM 0 0 0 0 1011.2 1010.3 0.0
26/11:00pm 29.3 28.8 7.8 26 11.8 CALM 0 0 0 0 1011.3 1010.4 0.0
26/10:30pm 30.1 29.6 7.9 25 12.2 CALM 0 0 0 0 1011.2 1010.3 0.0
26/10:00pm 31.2 30.8 8.2 24 12.8 CALM 0 0 0 0 1011.1 1010.2 0.0
26/09:30pm 32.0 31.4 7.6 22 13.5 CALM 0 0 0 0 1010.8 1009.9 0.0
26/09:00pm 32.8 32.2 7.6 21 14.0 CALM 0 0 0 0 1010.5 1009.6 0.0
26/08:30pm 34.5 34.1 8.3 20 14.8 CALM 0 0 0 0 1010.2 1009.3 0.0
26/08:00pm 36.3 35.9 8.2 18 16.0 CALM 0 0 0 0 1009.8 1008.9 0.0
26/07:30pm 38.2 36.7 7.0 15 17.6 WSW 4 7 2 4 1009.6 1008.7 0.0
26/07:00pm 39.1 37.2 6.7 14 18.3 WNW 6 9 3 5 1009.4 1008.5 0.0
26/06:30pm 39.1 36.2 6.7 14 18.3 NW 11 15 6 8 1009.1 1008.3 0.0
26/06:00pm 39.6 36.8 7.1 14 18.5 W 11 19 6 10 1009.0 1008.2 0.0
26/05:30pm 39.9 37.6 7.4 14 18.6 SSE 9 15 5 8 1009.0 1008.2 0.0
26/05:00pm 39.4 37.4 7.0 14 18.4 NNW 7 15 4 8 1009.0 1008.2 0.0
26/04:30pm 39.5 37.7 7.1 14 18.4 ENE 6 11 3 6 1009.3 1008.4 0.0
26/04:00pm 40.2 37.6 7.6 14 18.8 NW 11 19 6 10 1009.7 1008.8 0.0
26/03:30pm 40.0 38.9 8.5 15 18.3 NE 4 7 2 4 1010.1 1009.2 0.0
26/03:00pm 39.6 37.5 8.1 15 18.2 N 9 20 5 11 1010.4 1009.5 0.0
26/02:30pm 38.9 37.4 8.5 16 17.6 WSW 6 13 3 7 1010.9 1010.0 0.0
26/02:00pm 37.8 35.8 8.6 17 16.9 N 9 19 5 10 1011.5 1010.6 0.0
26/01:30pm 37.9 35.1 8.6 17 16.9 NE 13 22 7 12 1011.9 1011.0 0.0
26/01:00pm 37.5 35.1 10.0 19 16.2 NNE 13 20 7 11 1012.4 1011.6 0.0
26/12:30pm 36.4 33.2 9.8 20 15.5 NE 17 26 9 14 1012.8 1012.0 0.0
26/12:00pm 35.6 32.4 9.9 21 15.0 ENE 17 26 9 14 1013.2 1012.4 0.0
26/11:30am 34.6 31.7 11.1 24 13.9 ENE 17 22 9 12 1013.6 1012.8 0.0
26/11:00am 33.1 30.2 11.0 26 13.0 ENE 17 22 9 12 1013.8 1013.0 0.0
26/10:30am 31.8 29.6 12.1 30 11.7 ENE 15 20 8 11 1013.9 1013.1 0.0

Other Formats:

Comma delimited format used in spreadsheet applications
http://www.bom.gov.au/fwo/IDN60801/IDN60801.94686.axf

JavaScript Object Notation format (JSON) in row-major order
http://www.bom.gov.au/fwo/IDN60801/IDN60801.94686.json